Time;durP1;ratioP1;P1;durP2;ratioP2;P2;SDS_P1;SDS_P2;PMS_P1;PMS_P2;Temp;Humidity;BMP_temperature;BMP_pressure;BME280_temperature;BME280_humidity;BME280_pressure;Samples;Min_cycle;Max_cycle;Signal;HPM_P1;HPM_P2
2021/07/10 00:02:04;;;;;;;7.13;6.53;;;;;;;;;;5016139;28;20218;-56
2021/07/10 00:04:29;;;;;;;7.03;6.43;;;;;;;;;;5015912;28;20225;-55
2021/07/10 00:06:58;;;;;;;5.50;5.10;;;;;;;;;;5015040;28;20223;-55
2021/07/10 00:09:23;;;;;;;6.43;6.00;;;;;;;;;;5015713;28;20292;-55
2021/07/10 00:11:49;;;;;;;6.17;5.67;;;;;;;;;;5015100;28;20457;-56
2021/07/10 00:14:14;;;;;;;6.07;5.50;;;;;;;;;;5015745;28;20242;-56
2021/07/10 00:16:39;;;;;;;6.60;6.03;;;;;;;;;;5019696;28;20240;-51
2021/07/10 00:19:05;;;;;;;7.47;6.80;;;;;;;;;;5035912;28;20305;-57
2021/07/10 00:21:30;;;;;;;7.70;7.03;;;;;;;;;;5034562;28;20261;-56
2021/07/10 00:23:55;;;;;;;9.73;7.93;;;;;;;;;;5016234;28;20218;-56
2021/07/10 00:26:20;;;;;;;7.10;6.50;;;;;;;;;;5015944;28;20316;-57
2021/07/10 00:28:46;;;;;;;7.63;6.90;;;;;;;;;;5016130;28;20214;-57
2021/07/10 00:31:12;;;;;;;7.87;6.40;;;;;;;;;;5015654;28;20237;-57
2021/07/10 00:33:37;;;;;;;6.90;6.27;;;;;;;;;;5016027;28;20656;-56
2021/07/10 00:36:03;;;;;;;6.83;5.00;;;;;;;;;;5023622;28;20528;-56
2021/07/10 00:38:28;;;;;;;8.20;6.10;;;;;;;;;;5035194;28;20584;-55
2021/07/10 00:40:53;;;;;;;7.17;6.57;;;;;;;;;;5031586;28;20217;-56
2021/07/10 00:43:18;;;;;;;8.57;7.67;;;;;;;;;;5015256;28;20322;-56
2021/07/10 00:45:44;;;;;;;7.93;7.23;;;;;;;;;;5015452;28;20364;-55
2021/07/10 00:48:09;;;;;;;8.20;6.90;;;;;;;;;;5015467;28;20226;-54
2021/07/10 00:50:34;;;;;;;6.23;5.73;;;;;;;;;;5014926;28;20245;-55
2021/07/10 00:52:59;;;;;;;6.90;6.30;;;;;;;;;;5015426;28;20225;-56
2021/07/10 00:55:26;;;;;;;6.80;6.30;;;;;;;;;;5015112;28;20372;-54
2021/07/10 00:57:52;;;;;;;7.43;6.83;;;;;;;;;;5015446;28;20694;-56
2021/07/10 01:00:20;;;;;;;7.70;7.00;;;;;;;;;;5014781;28;20536;-56
2021/07/10 01:02:52;;;;;;;7.70;6.17;;;;;;;;;;5015229;28;20544;-56
2021/07/10 01:05:23;;;;;;;8.93;6.57;;;;;;;;;;5014157;28;20840;-57
2021/07/10 01:07:48;;;;;;;6.73;6.10;;;;;;;;;;5015188;28;20467;-57
2021/07/10 01:10:15;;;;;;;7.87;6.47;;;;;;;;;;5014634;28;20465;-55
2021/07/10 01:12:42;;;;;;;8.20;6.00;;;;;;;;;;5022460;28;20214;-57
2021/07/10 01:15:09;;;;;;;6.47;5.97;;;;;;;;;;5034667;28;20464;-56
2021/07/10 01:17:35;;;;;;;6.90;6.30;;;;;;;;;;5022274;28;20453;-56
2021/07/10 01:20:05;;;;;;;7.40;6.70;;;;;;;;;;5014739;28;20512;-57
2021/07/10 01:22:32;;;;;;;7.77;6.87;;;;;;;;;;5014285;28;20210;-57
2021/07/10 01:25:25;;;;;;;8.93;7.93;;;;;;;;;;5015073;28;20512;-58
2021/07/10 01:28:44;;;;;;;11.93;8.80;;;;;;;;;;5014681;28;20937;-56
2021/07/10 01:31:37;;;;;;;9.10;8.00;;;;;;;;;;5013987;28;20479;-57
2021/07/10 01:34:02;;;;;;;10.13;9.13;;;;;;;;;;5014726;28;20475;-57
2021/07/10 01:36:29;;;;;;;11.13;10.13;;;;;;;;;;5014803;28;20469;-58
2021/07/10 01:38:54;;;;;;;10.03;9.00;;;;;;;;;;5014885;28;20229;-55
2021/07/10 01:41:19;;;;;;;11.27;10.27;;;;;;;;;;5013941;28;20485;-57
2021/07/10 01:43:45;;;;;;;11.87;10.60;;;;;;;;;;5013831;28;20225;-57
2021/07/10 01:46:10;;;;;;;11.93;10.73;;;;;;;;;;5014175;28;20257;-58
2021/07/10 01:48:35;;;;;;;12.83;11.53;;;;;;;;;;5014624;28;20625;-56
2021/07/10 01:51:01;;;;;;;11.20;10.10;;;;;;;;;;5014090;28;20230;-56
2021/07/10 01:53:26;;;;;;;13.83;12.40;;;;;;;;;;5014620;28;20290;-57
2021/07/10 01:55:51;;;;;;;12.30;11.10;;;;;;;;;;5014734;28;20227;-56
2021/07/10 01:58:17;;;;;;;17.03;12.37;;;;;;;;;;5014476;28;20276;-58
2021/07/10 02:00:45;;;;;;;13.30;12.00;;;;;;;;;;5014597;28;20230;-56
2021/07/10 02:03:11;;;;;;;14.13;12.80;;;;;;;;;;5014156;28;20784;-55
2021/07/10 02:05:36;;;;;;;13.70;12.30;;;;;;;;;;5015025;28;20528;-57
2021/07/10 02:08:03;;;;;;;18.83;14.87;;;;;;;;;;5013167;28;20453;-57
2021/07/10 02:10:29;;;;;;;13.80;12.40;;;;;;;;;;5014716;28;20246;-57
2021/07/10 02:12:59;;;;;;;16.57;14.90;;;;;;;;;;5024070;28;20460;-56
2021/07/10 02:15:24;;;;;;;16.57;14.77;;;;;;;;;;5033988;28;20452;-57
2021/07/10 02:17:49;;;;;;;15.40;13.27;;;;;;;;;;5021410;28;20466;-58
2021/07/10 02:20:20;;;;;;;16.33;14.73;;;;;;;;;;5013720;28;20246;-54
2021/07/10 02:22:46;;;;;;;15.77;14.27;;;;;;;;;;5003960;28;20219;-56
2021/07/10 02:25:13;;;;;;;20.23;16.07;;;;;;;;;;4994952;28;20462;-56
2021/07/10 02:27:39;;;;;;;18.80;16.57;;;;;;;;;;4995033;28;20603;-56
2021/07/10 02:30:15;;;;;;;18.07;16.27;;;;;;;;;;4994154;28;20462;-58
2021/07/10 02:32:41;;;;;;;18.07;15.20;;;;;;;;;;4994652;28;20661;-56
2021/07/10 02:35:09;;;;;;;18.00;16.20;;;;;;;;;;4996115;28;20541;-56
2021/07/10 02:37:34;;;;;;;20.80;15.10;;;;;;;;;;5037601;28;20226;-57
2021/07/10 02:40:01;;;;;;;17.73;15.90;;;;;;;;;;5036548;28;20506;-56
2021/07/10 02:42:26;;;;;;;19.10;17.10;;;;;;;;;;5021473;28;20218;-57
2021/07/10 02:44:51;;;;;;;20.20;16.87;;;;;;;;;;5017790;28;20480;-57
2021/07/10 02:47:17;;;;;;;18.30;16.47;;;;;;;;;;5017056;28;20230;-57
2021/07/10 02:49:42;;;;;;;18.27;16.40;;;;;;;;;;5017642;28;20250;-57
2021/07/10 02:52:08;;;;;;;20.90;18.53;;;;;;;;;;5017118;28;20219;-56
2021/07/10 02:54:37;;;;;;;22.80;18.57;;;;;;;;;;5017768;28;20227;-56
2021/07/10 02:57:02;;;;;;;18.00;16.10;;;;;;;;;;5017836;28;20218;-56
2021/07/10 02:59:28;;;;;;;19.53;17.43;;;;;;;;;;5016910;28;20848;-55
2021/07/10 03:01:53;;;;;;;19.03;17.17;;;;;;;;;;5017502;28;20222;-58
2021/07/10 03:04:19;;;;;;;17.80;16.20;;;;;;;;;;5016909;28;20301;-56
2021/07/10 03:06:44;;;;;;;15.93;14.57;;;;;;;;;;5017138;28;20244;-56
2021/07/10 03:09:09;;;;;;;17.10;15.50;;;;;;;;;;5016955;28;20229;-56
2021/07/10 03:11:35;;;;;;;17.13;15.43;;;;;;;;;;5017275;28;20662;-56
2021/07/10 03:14:00;;;;;;;15.83;14.37;;;;;;;;;;4997672;28;20234;-53
2021/07/10 03:16:26;;;;;;;16.90;15.23;;;;;;;;;;5000611;28;20235;-56
2021/07/10 03:18:51;;;;;;;18.50;16.60;;;;;;;;;;5036949;28;20288;-55
2021/07/10 03:21:16;;;;;;;16.40;14.73;;;;;;;;;;5036531;28;20669;-56
2021/07/10 03:23:41;;;;;;;16.77;15.20;;;;;;;;;;5018119;28;20277;-56
2021/07/10 03:26:07;;;;;;;16.77;15.23;;;;;;;;;;5015476;28;20305;-56
2021/07/10 03:28:32;;;;;;;15.13;13.73;;;;;;;;;;5015947;28;20222;-57
2021/07/10 03:30:57;;;;;;;14.67;13.27;;;;;;;;;;5016739;28;20309;-56
2021/07/10 03:33:23;;;;;;;13.63;12.50;;;;;;;;;;5016318;28;20540;-56
2021/07/10 03:35:49;;;;;;;14.60;13.10;;;;;;;;;;5022559;28;20674;-55
2021/07/10 03:38:14;;;;;;;13.63;12.40;;;;;;;;;;5036310;28;20229;-54
2021/07/10 03:40:40;;;;;;;13.87;12.67;;;;;;;;;;5035367;28;20464;-57
2021/07/10 03:43:05;;;;;;;11.60;10.60;;;;;;;;;;5016523;28;20293;-57
2021/07/10 03:45:30;;;;;;;13.87;12.50;;;;;;;;;;5015942;28;20236;-55
2021/07/10 03:47:56;;;;;;;11.27;10.27;;;;;;;;;;5016555;28;20230;-54
2021/07/10 03:50:21;;;;;;;13.90;12.60;;;;;;;;;;5016068;28;20710;-57
2021/07/10 03:52:47;;;;;;;12.73;11.63;;;;;;;;;;5016449;28;20314;-56
2021/07/10 03:55:13;;;;;;;14.37;12.97;;;;;;;;;;5015961;28;20227;-57
2021/07/10 03:57:39;;;;;;;13.90;12.70;;;;;;;;;;5016433;28;20218;-56
2021/07/10 04:00:08;;;;;;;13.90;12.60;;;;;;;;;;5016103;28;20519;-55
2021/07/10 04:02:33;;;;;;;13.30;12.10;;;;;;;;;;5014809;28;20466;-56
2021/07/10 04:04:58;;;;;;;12.50;11.30;;;;;;;;;;5016016;28;20532;-57
2021/07/10 04:07:23;;;;;;;12.93;11.60;;;;;;;;;;5015496;28;20655;-58
2021/07/10 04:09:49;;;;;;;13.80;12.60;;;;;;;;;;5015790;28;20221;-56
2021/07/10 04:12:14;;;;;;;13.47;12.20;;;;;;;;;;5020821;28;20210;-56
2021/07/10 04:14:39;;;;;;;13.07;11.77;;;;;;;;;;5035780;28;20234;-58
2021/07/10 04:17:05;;;;;;;13.40;12.07;;;;;;;;;;5028410;28;20265;-53
2021/07/10 04:19:30;;;;;;;14.77;13.43;;;;;;;;;;5015212;28;20222;-55
2021/07/10 04:21:56;;;;;;;13.50;12.40;;;;;;;;;;5015726;28;20449;-57
2021/07/10 04:24:21;;;;;;;14.43;13.10;;;;;;;;;;5015364;28;20261;-56
2021/07/10 04:26:46;;;;;;;13.00;11.70;;;;;;;;;;5015428;28;20234;-56
2021/07/10 04:29:12;;;;;;;13.67;12.27;;;;;;;;;;5015289;28;20222;-56
2021/07/10 04:31:37;;;;;;;13.80;12.50;;;;;;;;;;5015306;28;20225;-58
2021/07/10 04:34:02;;;;;;;14.67;12.97;;;;;;;;;;5015670;28;20236;-56
2021/07/10 04:36:27;;;;;;;13.93;12.73;;;;;;;;;;5014881;28;20226;-57
2021/07/10 04:38:53;;;;;;;15.13;13.80;;;;;;;;;;5012007;28;20299;-56
2021/07/10 04:41:18;;;;;;;15.30;13.90;;;;;;;;;;5014627;28;20233;-56
2021/07/10 04:43:43;;;;;;;16.53;13.90;;;;;;;;;;5025392;28;20236;-57
2021/07/10 04:46:09;;;;;;;14.00;12.50;;;;;;;;;;5021524;28;20572;-56
2021/07/10 04:48:34;;;;;;;14.20;12.63;;;;;;;;;;5027772;28;20348;-54
2021/07/10 04:51:00;;;;;;;14.00;12.60;;;;;;;;;;5027286;28;20232;-56
2021/07/10 04:53:25;;;;;;;15.27;13.80;;;;;;;;;;5028760;28;20627;-56
2021/07/10 04:55:50;;;;;;;14.23;12.70;;;;;;;;;;5015820;28;20214;-55
2021/07/10 04:58:16;;;;;;;14.43;13.10;;;;;;;;;;5027228;28;20349;-55
2021/07/10 05:00:41;;;;;;;14.00;11.87;;;;;;;;;;5025728;28;20225;-53
2021/07/10 05:03:06;;;;;;;13.13;11.90;;;;;;;;;;5021067;28;20666;-54
2021/07/10 05:05:32;;;;;;;14.77;11.70;;;;;;;;;;5022325;28;20371;-56
2021/07/10 05:07:59;;;;;;;14.20;12.90;;;;;;;;;;5027859;28;20223;-54
2021/07/10 05:10:24;;;;;;;15.20;13.73;;;;;;;;;;5024840;28;20657;-55
2021/07/10 05:12:49;;;;;;;12.10;11.00;;;;;;;;;;5021288;28;20531;-54
2021/07/10 05:15:17;;;;;;;13.97;12.67;;;;;;;;;;5023725;28;20214;-56
2021/07/10 05:17:42;;;;;;;11.77;10.77;;;;;;;;;;5023267;28;20214;-55
2021/07/10 05:20:08;;;;;;;12.93;11.50;;;;;;;;;;5022677;28;20477;-54
2021/07/10 05:22:34;;;;;;;13.23;11.87;;;;;;;;;;5024724;28;20209;-53
2021/07/10 05:24:59;;;;;;;13.80;12.53;;;;;;;;;;5024217;28;20473;-57
2021/07/10 05:27:25;;;;;;;15.90;12.50;;;;;;;;;;5026976;28;20223;-52
2021/07/10 05:29:50;;;;;;;13.13;11.93;;;;;;;;;;5023546;28;20214;-52
2021/07/10 05:32:15;;;;;;;14.07;12.60;;;;;;;;;;5020373;28;20248;-55
2021/07/10 05:34:42;;;;;;;13.93;12.63;;;;;;;;;;5023845;28;20214;-53
2021/07/10 05:37:07;;;;;;;13.27;11.87;;;;;;;;;;5030856;28;20217;-53
2021/07/10 05:39:32;;;;;;;15.67;13.13;;;;;;;;;;5022716;28;20472;-55
2021/07/10 05:41:57;;;;;;;14.90;13.47;;;;;;;;;;5016796;28;20284;-55
2021/07/10 05:44:25;;;;;;;13.60;12.20;;;;;;;;;;5026043;28;20560;-55
2021/07/10 05:46:50;;;;;;;13.03;11.73;;;;;;;;;;5019525;28;20237;-57
2021/07/10 05:49:16;;;;;;;14.33;12.83;;;;;;;;;;5018051;28;20464;-55
2021/07/10 05:51:41;;;;;;;13.53;12.20;;;;;;;;;;5018582;28;20305;-54
2021/07/10 05:54:06;;;;;;;13.70;12.30;;;;;;;;;;5025677;28;20560;-56
2021/07/10 05:56:31;;;;;;;12.87;11.60;;;;;;;;;;5024735;28;20240;-55
2021/07/10 05:58:57;;;;;;;12.30;11.10;;;;;;;;;;5018472;28;20305;-56
2021/07/10 06:01:22;;;;;;;13.23;11.47;;;;;;;;;;5020394;28;20223;-56
2021/07/10 06:03:47;;;;;;;13.57;12.10;;;;;;;;;;5027093;28;20335;-57
2021/07/10 06:06:14;;;;;;;13.30;11.87;;;;;;;;;;5026302;28;20252;-55
2021/07/10 06:08:39;;;;;;;14.10;12.17;;;;;;;;;;5020047;28;20213;-55
2021/07/10 06:11:05;;;;;;;15.47;12.50;;;;;;;;;;5024619;28;21012;-56
2021/07/10 06:13:30;;;;;;;13.60;12.23;;;;;;;;;;5026177;28;20217;-56
2021/07/10 06:15:55;;;;;;;12.27;11.07;;;;;;;;;;5025790;28;20253;-55
2021/07/10 06:18:21;;;;;;;13.00;11.70;;;;;;;;;;5035641;28;20232;-56
2021/07/10 06:20:46;;;;;;;11.70;10.50;;;;;;;;;;5025896;28;20301;-57
2021/07/10 06:23:11;;;;;;;13.70;12.30;;;;;;;;;;5026044;28;20225;-57
2021/07/10 06:25:38;;;;;;;11.83;10.60;;;;;;;;;;5025834;28;20222;-55
2021/07/10 06:28:05;;;;;;;13.43;11.70;;;;;;;;;;5030836;28;20230;-55
2021/07/10 06:30:30;;;;;;;12.47;11.30;;;;;;;;;;5018091;28;20572;-57
2021/07/10 06:32:55;;;;;;;11.83;10.63;;;;;;;;;;5030823;28;20569;-56
2021/07/10 06:35:21;;;;;;;11.90;10.90;;;;;;;;;;5027518;28;20233;-56
2021/07/10 06:37:46;;;;;;;12.80;11.13;;;;;;;;;;5033649;28;20229;-55
2021/07/10 06:40:13;;;;;;;12.87;11.77;;;;;;;;;;5019348;28;20223;-54
2021/07/10 06:42:39;;;;;;;12.67;11.20;;;;;;;;;;5027356;28;20300;-55
2021/07/10 06:45:06;;;;;;;12.80;11.43;;;;;;;;;;5023820;28;20849;-53
2021/07/10 06:47:31;;;;;;;12.77;11.57;;;;;;;;;;5023541;28;20292;-56
2021/07/10 06:49:57;;;;;;;13.80;11.67;;;;;;;;;;5030347;28;20907;-54
2021/07/10 06:52:23;;;;;;;11.47;10.37;;;;;;;;;;5029616;28;20225;-56
2021/07/10 06:54:48;;;;;;;11.37;9.67;;;;;;;;;;5023646;28;20506;-54
2021/07/10 06:57:13;;;;;;;11.90;10.87;;;;;;;;;;5024391;28;20222;-55
2021/07/10 06:59:39;;;;;;;11.23;10.23;;;;;;;;;;5030096;28;20246;-55
2021/07/10 07:02:05;;;;;;;11.50;10.23;;;;;;;;;;5028048;28;20296;-52
2021/07/10 07:04:30;;;;;;;11.83;10.70;;;;;;;;;;5022968;28;20340;-55
2021/07/10 07:06:55;;;;;;;12.00;10.10;;;;;;;;;;5025107;28;20548;-57
2021/07/10 07:09:21;;;;;;;12.40;11.20;;;;;;;;;;5021180;28;20312;-54
2021/07/10 07:11:48;;;;;;;11.20;10.10;;;;;;;;;;5027429;28;20318;-56
2021/07/10 07:14:14;;;;;;;12.13;10.90;;;;;;;;;;5031474;28;20527;-53
2021/07/10 07:16:39;;;;;;;11.20;10.10;;;;;;;;;;5023637;28;20461;-56
2021/07/10 07:19:04;;;;;;;11.60;10.40;;;;;;;;;;5029844;28;20293;-56
2021/07/10 07:21:29;;;;;;;11.10;10.07;;;;;;;;;;5025834;28;20245;-56
2021/07/10 07:23:56;;;;;;;11.77;10.77;;;;;;;;;;5030315;28;20666;-55
2021/07/10 07:26:22;;;;;;;11.23;9.93;;;;;;;;;;5027181;28;20229;-56
2021/07/10 07:28:48;;;;;;;10.77;9.87;;;;;;;;;;5022916;28;20962;-58
2021/07/10 07:31:13;;;;;;;13.07;10.23;;;;;;;;;;5025287;28;20222;-55
2021/07/10 07:33:38;;;;;;;11.70;10.50;;;;;;;;;;5028406;28;20236;-57
2021/07/10 07:36:04;;;;;;;11.27;10.10;;;;;;;;;;5019027;28;20219;-56
2021/07/10 07:38:30;;;;;;;10.60;9.50;;;;;;;;;;5029695;28;20619;-57
2021/07/10 07:40:55;;;;;;;10.63;9.53;;;;;;;;;;5009494;28;20218;-57
2021/07/10 07:43:20;;;;;;;11.60;10.50;;;;;;;;;;5029527;28;20458;-56
2021/07/10 07:45:46;;;;;;;10.53;9.63;;;;;;;;;;5026192;28;20229;-57
2021/07/10 07:48:11;;;;;;;10.50;8.30;;;;;;;;;;5022599;28;20237;-57
2021/07/10 07:50:36;;;;;;;10.00;9.10;;;;;;;;;;5028848;28;20585;-56
2021/07/10 07:53:02;;;;;;;8.83;7.97;;;;;;;;;;5022498;28;20214;-55
2021/07/10 07:55:27;;;;;;;9.83;9.03;;;;;;;;;;5030632;28;20661;-56
2021/07/10 07:57:52;;;;;;;10.53;8.93;;;;;;;;;;5022711;28;20296;-57
2021/07/10 08:00:21;;;;;;;9.73;7.73;;;;;;;;;;5029629;28;20653;-55
2021/07/10 08:02:48;;;;;;;10.50;8.80;;;;;;;;;;5019551;28;20301;-57
2021/07/10 08:05:14;;;;;;;9.37;8.43;;;;;;;;;;5024741;28;20798;-56
2021/07/10 08:07:40;;;;;;;9.47;8.50;;;;;;;;;;5019428;28;20497;-50
2021/07/10 08:10:08;;;;;;;8.90;8.10;;;;;;;;;;5024961;28;20488;-56
2021/07/10 08:12:33;;;;;;;7.80;7.20;;;;;;;;;;5025897;28;20457;-58
2021/07/10 08:14:58;;;;;;;8.60;7.80;;;;;;;;;;5026532;28;20472;-55
2021/07/10 08:17:24;;;;;;;10.17;8.00;;;;;;;;;;5023379;28;20229;-58
2021/07/10 08:19:50;;;;;;;9.37;8.50;;;;;;;;;;5026338;28;20582;-56
2021/07/10 08:22:15;;;;;;;7.83;7.13;;;;;;;;;;5026723;28;20508;-56
2021/07/10 08:24:40;;;;;;;11.37;7.03;;;;;;;;;;5026161;28;20226;-55
2021/07/10 08:27:06;;;;;;;8.17;7.47;;;;;;;;;;5028569;28;20232;-58
2021/07/10 08:29:32;;;;;;;10.90;7.50;;;;;;;;;;5023769;28;20605;-55
2021/07/10 08:31:57;;;;;;;7.30;6.60;;;;;;;;;;5021436;28;20218;-54
2021/07/10 08:34:22;;;;;;;8.20;7.50;;;;;;;;;;5026421;28;20224;-57
2021/07/10 08:36:47;;;;;;;7.03;6.33;;;;;;;;;;5030205;28;20221;-57
2021/07/10 08:39:13;;;;;;;8.10;7.30;;;;;;;;;;5026531;28;20298;-55
2021/07/10 08:41:38;;;;;;;7.73;7.03;;;;;;;;;;5010294;28;20222;-56
2021/07/10 08:44:04;;;;;;;8.90;6.97;;;;;;;;;;5026013;28;20293;-56
2021/07/10 08:46:30;;;;;;;7.80;7.10;;;;;;;;;;5027896;28;20559;-56
2021/07/10 08:48:56;;;;;;;9.23;6.53;;;;;;;;;;5024154;28;20448;-57
2021/07/10 08:51:21;;;;;;;6.80;6.20;;;;;;;;;;5021534;28;20241;-56
2021/07/10 08:53:47;;;;;;;9.93;6.50;;;;;;;;;;5024554;28;20457;-54
2021/07/10 08:56:13;;;;;;;7.23;6.63;;;;;;;;;;5020045;28;20238;-55
2021/07/10 08:58:40;;;;;;;6.97;6.37;;;;;;;;;;5023659;28;20225;-56
2021/07/10 09:01:07;;;;;;;6.90;6.30;;;;;;;;;;5021137;28;20349;-56
2021/07/10 09:03:33;;;;;;;8.20;7.33;;;;;;;;;;5025049;28;20866;-54
2021/07/10 09:05:58;;;;;;;7.97;6.30;;;;;;;;;;5027122;28;20459;-57
2021/07/10 09:08:26;;;;;;;7.20;6.70;;;;;;;;;;5014727;28;20223;-58
2021/07/10 09:10:55;;;;;;;8.90;7.37;;;;;;;;;;5027331;28;20221;-56
2021/07/10 09:13:29;;;;;;;8.20;7.43;;;;;;;;;;5023963;28;20472;-57
2021/07/10 09:16:04;;;;;;;7.70;7.10;;;;;;;;;;5020561;28;21346;-55
2021/07/10 09:18:44;;;;;;;8.20;7.40;;;;;;;;;;5034624;28;20456;-57
2021/07/10 09:21:15;;;;;;;8.67;7.77;;;;;;;;;;5020892;28;20480;-57
2021/07/10 09:23:44;;;;;;;10.33;7.03;;;;;;;;;;5044197;28;20449;-58
2021/07/10 09:26:22;;;;;;;9.47;8.30;;;;;;;;;;5022173;28;20483;-57
2021/07/10 09:29:02;;;;;;;8.03;7.07;;;;;;;;;;5020537;28;20464;-56
2021/07/10 09:31:32;;;;;;;7.57;6.97;;;;;;;;;;5022275;28;20531;-57
2021/07/10 09:34:01;;;;;;;8.87;7.80;;;;;;;;;;5014298;28;20468;-57
2021/07/10 09:36:26;;;;;;;8.03;7.33;;;;;;;;;;5014346;28;20472;-56
2021/07/10 09:38:53;;;;;;;8.80;8.10;;;;;;;;;;5027508;28;20964;-57
2021/07/10 09:41:25;;;;;;;10.27;8.50;;;;;;;;;;5007149;28;20305;-57
2021/07/10 09:43:55;;;;;;;8.43;7.70;;;;;;;;;;5021146;28;20530;-58
2021/07/10 09:46:25;;;;;;;8.87;8.10;;;;;;;;;;5022034;28;20461;-56
2021/07/10 09:48:51;;;;;;;9.00;8.20;;;;;;;;;;5022313;28;20556;-58
2021/07/10 09:51:22;;;;;;;9.60;8.70;;;;;;;;;;5020365;28;20552;-57
2021/07/10 09:54:07;;;;;;;9.50;8.60;;;;;;;;;;5024003;28;20231;-56
2021/07/10 09:56:38;;;;;;;8.30;7.60;;;;;;;;;;5026720;28;20492;-58
2021/07/10 09:59:20;;;;;;;9.10;8.20;;;;;;;;;;5026001;28;20478;-58
2021/07/10 10:01:47;;;;;;;8.77;7.87;;;;;;;;;;5009923;28;20461;-58
2021/07/10 10:04:28;;;;;;;9.07;8.20;;;;;;;;;;5020451;28;20569;-57
2021/07/10 10:06:55;;;;;;;9.43;7.70;;;;;;;;;;5026688;28;20457;-58
2021/07/10 10:09:30;;;;;;;13.30;9.43;;;;;;;;;;5029823;28;20461;-56
2021/07/10 10:11:58;;;;;;;9.53;7.90;;;;;;;;;;5025207;28;20456;-56
2021/07/10 10:14:26;;;;;;;11.13;8.00;;;;;;;;;;5027895;28;20465;-55
2021/07/10 10:16:53;;;;;;;10.73;8.70;;;;;;;;;;5020707;28;20457;-57
2021/07/10 10:19:25;;;;;;;8.60;7.70;;;;;;;;;;5026684;28;20476;-57
2021/07/10 10:21:54;;;;;;;9.47;8.57;;;;;;;;;;5023351;28;20461;-55
2021/07/10 10:24:22;;;;;;;7.63;6.93;;;;;;;;;;5026433;28;20520;-57
2021/07/10 10:26:48;;;;;;;7.27;6.57;;;;;;;;;;5026123;28;20498;-57
2021/07/10 10:29:15;;;;;;;7.67;7.07;;;;;;;;;;5021081;28;20465;-58
2021/07/10 10:31:42;;;;;;;7.83;7.23;;;;;;;;;;5019810;28;20288;-58
2021/07/10 10:34:08;;;;;;;7.03;6.33;;;;;;;;;;5025996;28;20457;-57
2021/07/10 10:36:36;;;;;;;12.10;8.10;;;;;;;;;;5015981;28;20937;-59
2021/07/10 10:39:08;;;;;;;8.03;7.33;;;;;;;;;;5025629;28;20457;-58
2021/07/10 10:41:37;;;;;;;9.70;6.73;;;;;;;;;;5014995;28;20564;-59
2021/07/10 10:44:02;;;;;;;7.60;6.43;;;;;;;;;;5031815;28;20808;-58
2021/07/10 10:46:28;;;;;;;11.23;6.07;;;;;;;;;;5020274;28;20465;-60
2021/07/10 10:48:53;;;;;;;6.20;5.80;;;;;;;;;;5022044;28;20293;-58
2021/07/10 10:51:33;;;;;;;7.43;6.70;;;;;;;;;;5017658;28;20233;-58
2021/07/10 10:54:16;;;;;;;7.23;6.20;;;;;;;;;;5023589;28;20213;-58
2021/07/10 10:56:41;;;;;;;7.63;6.80;;;;;;;;;;5015649;28;20460;-59
2021/07/10 10:59:28;;;;;;;7.00;6.30;;;;;;;;;;5029317;28;20449;-57
2021/07/10 11:01:56;;;;;;;8.50;6.00;;;;;;;;;;5008330;28;20218;-57
2021/07/10 11:04:48;;;;;;;7.03;6.50;;;;;;;;;;5030036;28;20464;-57
2021/07/10 11:07:30;;;;;;;7.67;6.90;;;;;;;;;;5020592;28;20465;-59
2021/07/10 11:10:01;;;;;;;5.80;5.30;;;;;;;;;;5012923;28;20479;-58
2021/07/10 11:12:45;;;;;;;5.87;5.40;;;;;;;;;;5023047;28;20461;-57
2021/07/10 11:15:27;;;;;;;6.93;6.30;;;;;;;;;;5024902;28;20441;-58
2021/07/10 11:17:53;;;;;;;6.70;5.67;;;;;;;;;;5010295;28;20522;-57
2021/07/10 11:20:44;;;;;;;7.40;6.70;;;;;;;;;;5022574;28;20466;-58
2021/07/10 11:23:12;;;;;;;6.67;6.07;;;;;;;;;;5025956;28;20838;-57
2021/07/10 11:25:49;;;;;;;6.70;5.27;;;;;;;;;;5028798;28;20783;-58
2021/07/10 11:28:15;;;;;;;5.87;5.27;;;;;;;;;;5028284;28;20465;-57
2021/07/10 11:30:45;;;;;;;6.37;5.77;;;;;;;;;;5022744;28;20453;-58
2021/07/10 11:33:11;;;;;;;7.57;5.90;;;;;;;;;;5023473;28;20825;-56
2021/07/10 11:35:36;;;;;;;7.53;6.20;;;;;;;;;;5029722;28;20480;-58
2021/07/10 11:38:03;;;;;;;7.70;6.60;;;;;;;;;;5028324;28;20214;-58
2021/07/10 11:40:39;;;;;;;5.10;4.70;;;;;;;;;;5016984;28;20238;-58
2021/07/10 11:43:10;;;;;;;6.80;5.77;;;;;;;;;;5029393;28;21049;-57
2021/07/10 11:45:37;;;;;;;5.97;5.57;;;;;;;;;;5024993;28;20951;-58
2021/07/10 11:48:20;;;;;;;6.83;5.33;;;;;;;;;;5022035;28;20473;-58
2021/07/10 11:50:59;;;;;;;5.03;4.60;;;;;;;;;;5024866;28;20469;-57
2021/07/10 11:53:25;;;;;;;4.90;4.43;;;;;;;;;;5028836;28;20536;-57
2021/07/10 11:55:50;;;;;;;4.80;4.40;;;;;;;;;;5028208;28;20481;-57
2021/07/10 11:58:17;;;;;;;5.50;5.10;;;;;;;;;;5021302;28;20300;-58
2021/07/10 12:00:43;;;;;;;5.67;5.07;;;;;;;;;;5034937;28;20248;-58
2021/07/10 12:03:17;;;;;;;9.07;4.43;;;;;;;;;;5022098;28;20461;-58
2021/07/10 12:05:43;;;;;;;5.40;5.00;;;;;;;;;;5022445;28;20508;-57
2021/07/10 12:08:08;;;;;;;5.80;5.40;;;;;;;;;;5026620;28;20553;-58
2021/07/10 12:10:40;;;;;;;5.53;5.03;;;;;;;;;;5022132;28;20227;-58
2021/07/10 12:13:10;;;;;;;5.57;5.07;;;;;;;;;;5027695;28;20276;-58
2021/07/10 12:15:47;;;;;;;6.23;5.73;;;;;;;;;;5028908;28;20456;-58
2021/07/10 12:18:14;;;;;;;5.20;4.70;;;;;;;;;;5024988;28;20535;-59
2021/07/10 12:20:44;;;;;;;6.20;5.00;;;;;;;;;;5021588;28;20886;-58
2021/07/10 12:23:18;;;;;;;5.30;4.47;;;;;;;;;;5024605;28;20453;-58
2021/07/10 12:25:48;;;;;;;4.37;3.93;;;;;;;;;;5032267;28;20464;-57
2021/07/10 12:28:13;;;;;;;5.27;4.73;;;;;;;;;;5024049;28;21012;-58
2021/07/10 12:30:42;;;;;;;4.97;4.57;;;;;;;;;;5028758;28;20553;-58
2021/07/10 12:33:29;;;;;;;7.30;5.17;;;;;;;;;;5026163;28;20304;-59
2021/07/10 12:36:06;;;;;;;4.80;4.47;;;;;;;;;;5010841;28;20540;-57
2021/07/10 12:38:32;;;;;;;5.10;4.63;;;;;;;;;;5019832;28;22266;-59
2021/07/10 12:41:18;;;;;;;4.60;4.30;;;;;;;;;;5024978;28;20557;-58
2021/07/10 12:43:43;;;;;;;4.57;4.13;;;;;;;;;;5028506;28;20544;-58
2021/07/10 12:46:08;;;;;;;5.17;4.53;;;;;;;;;;5027302;28;20456;-58
2021/07/10 12:48:34;;;;;;;5.63;4.37;;;;;;;;;;5021563;28;20313;-58
2021/07/10 12:51:02;;;;;;;5.37;4.87;;;;;;;;;;5022323;28;20237;-58
2021/07/10 12:53:32;;;;;;;5.23;4.70;;;;;;;;;;5028593;28;20308;-58
2021/07/10 12:56:33;;;;;;;5.07;4.57;;;;;;;;;;5028043;28;20831;-58
2021/07/10 12:58:58;;;;;;;4.50;4.10;;;;;;;;;;5017314;28;20857;-59
2021/07/10 13:01:24;;;;;;;4.50;4.20;;;;;;;;;;5021653;28;20543;-58
2021/07/10 13:03:55;;;;;;;5.10;4.70;;;;;;;;;;5023879;28;20238;-59
2021/07/10 13:06:21;;;;;;;5.20;4.80;;;;;;;;;;5028488;28;20860;-59
2021/07/10 13:08:51;;;;;;;4.93;4.43;;;;;;;;;;5014630;28;20489;-57
2021/07/10 13:11:17;;;;;;;4.60;4.20;;;;;;;;;;5028227;28;20462;-59
2021/07/10 13:13:50;;;;;;;5.00;4.60;;;;;;;;;;5026970;28;20831;-58
2021/07/10 13:16:17;;;;;;;5.93;4.40;;;;;;;;;;5020909;28;20218;-58
2021/07/10 13:18:51;;;;;;;5.57;4.90;;;;;;;;;;5032363;28;20502;-59
2021/07/10 13:21:19;;;;;;;5.63;5.10;;;;;;;;;;5020468;28;20547;-59
2021/07/10 13:23:50;;;;;;;4.77;4.37;;;;;;;;;;5020895;28;20544;-59
2021/07/10 13:26:23;;;;;;;4.83;4.53;;;;;;;;;;5026201;28;20465;-59
2021/07/10 13:28:50;;;;;;;4.27;3.97;;;;;;;;;;5027476;28;20456;-59
2021/07/10 13:31:25;;;;;;;5.10;4.60;;;;;;;;;;5022539;28;20460;-59
2021/07/10 13:34:05;;;;;;;4.80;4.40;;;;;;;;;;5021364;28;20848;-58
2021/07/10 13:36:39;;;;;;;4.00;3.70;;;;;;;;;;5022243;28;20538;-58
2021/07/10 13:39:08;;;;;;;5.70;5.20;;;;;;;;;;5013569;28;20453;-59
2021/07/10 13:41:35;;;;;;;4.43;4.07;;;;;;;;;;5013796;28;20461;-59
2021/07/10 13:44:06;;;;;;;5.57;4.20;;;;;;;;;;5013763;28;20472;-58
2021/07/10 13:46:37;;;;;;;4.57;4.20;;;;;;;;;;5016890;28;20470;-58
2021/07/10 13:49:22;;;;;;;4.67;4.30;;;;;;;;;;5023523;28;20453;-58
2021/07/10 13:51:53;;;;;;;4.47;4.17;;;;;;;;;;5021383;28;20456;-58
2021/07/10 13:54:43;;;;;;;4.47;4.13;;;;;;;;;;5022328;28;20482;-58
2021/07/10 13:57:38;;;;;;;5.40;5.00;;;;;;;;;;5024942;28;20937;-58
2021/07/10 14:00:10;;;;;;;4.53;4.23;;;;;;;;;;5002803;28;20453;-58
2021/07/10 14:02:56;;;;;;;5.27;4.77;;;;;;;;;;5027228;28;20506;-58
2021/07/10 14:05:33;;;;;;;4.87;4.47;;;;;;;;;;5018784;28;20450;-58
2021/07/10 14:08:09;;;;;;;4.47;4.17;;;;;;;;;;5013393;28;20453;-59
2021/07/10 14:10:37;;;;;;;4.73;4.40;;;;;;;;;;5026587;28;20464;-58
2021/07/10 14:13:08;;;;;;;5.63;5.20;;;;;;;;;;5020779;28;20461;-58
2021/07/10 14:15:34;;;;;;;5.83;4.47;;;;;;;;;;5014362;28;20458;-58
2021/07/10 14:17:59;;;;;;;5.63;5.23;;;;;;;;;;5025713;28;20461;-58
2021/07/10 14:20:26;;;;;;;4.30;4.00;;;;;;;;;;5026720;28;20469;-58
2021/07/10 14:22:51;;;;;;;5.00;4.50;;;;;;;;;;5021115;28;20309;-59
2021/07/10 14:25:19;;;;;;;5.23;4.63;;;;;;;;;;5020092;28;20794;-59
2021/07/10 14:27:45;;;;;;;4.57;4.27;;;;;;;;;;5025554;28;20226;-58
2021/07/10 14:30:12;;;;;;;4.53;4.23;;;;;;;;;;5026940;28;20838;-58
2021/07/10 14:32:38;;;;;;;5.20;4.70;;;;;;;;;;5025311;28;20221;-59
2021/07/10 14:35:04;;;;;;;5.60;5.20;;;;;;;;;;5024244;28;20495;-58
2021/07/10 14:37:29;;;;;;;5.90;5.40;;;;;;;;;;5029819;28;20279;-58